Time,TemperatureF,DewpointF,PressureIn,WindDirection,WindDirectionDegrees,WindSpeedMPH,WindSpeedGustMPH,Humidity,HourlyPrecipIn,Conditions,Clouds,dailyrainin,SoftwareType,DateUTC
2013-11-08 00:00:00,52.0,52.0,29.98,NE,40,0.0,7.0,100,0.00,,,0.00,Wunderground v.1.15,2013-11-08 08:00:00,
2013-11-08 00:10:00,52.8,52.8,29.97,NE,40,0.0,7.0,100,0.00,,,0.00,Wunderground v.1.15,2013-11-08 08:10:00,
2013-11-08 00:20:00,52.8,52.8,29.97,NE,40,0.0,7.0,100,0.00,,,0.00,Wunderground v.1.15,2013-11-08 08:20:00,
2013-11-08 00:30:00,52.6,52.6,29.98,NE,40,0.0,7.0,100,0.00,,,0.00,Wunderground v.1.15,2013-11-08 08:30:00,
2013-11-08 00:40:00,52.2,52.2,29.98,NE,40,0.0,7.0,100,0.00,,,0.00,Wunderground v.1.15,2013-11-08 08:40:00,
2013-11-08 00:50:00,51.7,51.7,29.98,NE,47,0.0,7.0,100,0.00,,,0.00,Wunderground v.1.15,2013-11-08 08:50:00,
2013-11-08 01:00:00,51.0,51.0,29.98,NE,47,0.0,7.0,100,0.00,,,0.00,Wunderground v.1.15,2013-11-08 09:00:00,
2013-11-08 01:10:00,50.4,50.4,29.98,NE,47,0.0,7.0,100,0.00,,,0.00,Wunderground v.1.15,2013-11-08 09:10:00,
2013-11-08 01:20:00,50.1,50.1,29.98,NE,47,0.0,7.0,100,0.00,,,0.00,Wunderground v.1.15,2013-11-08 09:20:00,
2013-11-08 01:30:00,49.8,49.8,29.98,NE,46,0.0,7.0,100,0.00,,,0.00,Wunderground v.1.15,2013-11-08 09:30:00,
2013-11-08 01:40:00,49.4,49.4,29.98,NE,46,0.0,7.0,100,0.00,,,0.00,Wunderground v.1.15,2013-11-08 09:40:00,
2013-11-08 01:50:00,48.9,48.9,29.98,NE,47,0.0,7.0,100,0.00,,,0.00,Wunderground v.1.15,2013-11-08 09:50:00,
2013-11-08 02:00:00,48.6,48.6,29.98,NE,46,0.0,7.0,100,0.00,,,0.00,Wunderground v.1.15,2013-11-08 10:00:00,
2013-11-08 02:10:00,48.5,48.5,29.98,NE,47,0.0,7.0,100,0.00,,,0.00,Wunderground v.1.15,2013-11-08 10:10:00,
2013-11-08 02:20:00,48.2,48.2,29.98,NE,47,0.0,7.0,100,0.00,,,0.00,Wunderground v.1.15,2013-11-08 10:20:00,
2013-11-08 02:30:00,47.9,47.9,29.98,NE,47,0.0,7.0,100,0.00,,,0.00,Wunderground v.1.15,2013-11-08 10:30:00,
2013-11-08 02:40:00,47.7,47.7,29.98,NE,46,0.0,7.0,100,0.00,,,0.00,Wunderground v.1.15,2013-11-08 10:40:00,
2013-11-08 02:50:00,47.6,47.6,29.98,NE,47,0.0,7.0,100,0.00,,,0.00,Wunderground v.1.15,2013-11-08 10:50:00,
2013-11-08 03:00:00,47.4,47.4,29.97,NE,47,0.0,7.0,100,0.00,,,0.00,Wunderground v.1.15,2013-11-08 11:00:00,
2013-11-08 03:10:00,47.0,47.0,29.97,NE,47,0.0,7.0,100,0.00,,,0.00,Wunderground v.1.15,2013-11-08 11:10:00,
2013-11-08 03:20:00,46.8,46.8,29.97,NE,47,0.0,7.0,100,0.00,,,0.00,Wunderground v.1.15,2013-11-08 11:20:00,
2013-11-08 03:30:00,46.5,46.5,29.97,NE,46,0.0,7.0,100,0.00,,,0.00,Wunderground v.1.15,2013-11-08 11:30:00,
2013-11-08 03:40:00,46.1,46.1,29.97,NE,47,0.0,7.0,100,0.00,,,0.00,Wunderground v.1.15,2013-11-08 11:40:00,
2013-11-08 03:50:00,46.1,46.1,29.96,NE,46,0.0,7.0,100,0.00,,,0.00,Wunderground v.1.15,2013-11-08 11:50:00,
2013-11-08 04:00:00,46.0,46.0,29.96,NE,47,0.0,7.0,100,0.00,,,0.00,Wunderground v.1.15,2013-11-08 12:00:00,
2013-11-08 04:10:00,45.5,45.5,29.96,NE,47,0.0,7.0,100,0.00,,,0.00,Wunderground v.1.15,2013-11-08 12:10:00,
2013-11-08 04:20:00,45.1,45.1,29.96,NE,47,0.0,7.0,100,0.00,,,0.00,Wunderground v.1.15,2013-11-08 12:20:00,
2013-11-08 04:30:00,44.8,44.8,29.96,NE,47,0.0,7.0,100,0.00,,,0.00,Wunderground v.1.15,2013-11-08 12:30:00,
2013-11-08 04:40:00,44.6,44.6,29.96,NE,47,0.0,7.0,100,0.00,,,0.00,Wunderground v.1.15,2013-11-08 12:40:00,
2013-11-08 04:50:00,44.2,44.2,29.96,NE,46,0.0,7.0,100,0.00,,,0.00,Wunderground v.1.15,2013-11-08 12:50:00,
2013-11-08 05:00:00,43.8,43.8,29.96,NE,47,0.0,7.0,100,0.00,,,0.00,Wunderground v.1.15,2013-11-08 13:00:00,
2013-11-08 05:10:00,43.6,43.6,29.96,NE,47,0.0,7.0,100,0.00,,,0.00,Wunderground v.1.15,2013-11-08 13:10:00,
2013-11-08 05:20:00,43.3,43.3,29.96,NE,47,0.0,7.0,100,0.00,,,0.00,Wunderground v.1.15,2013-11-08 13:20:00,
2013-11-08 05:30:00,43.2,43.2,29.96,NE,47,0.0,7.0,100,0.00,,,0.00,Wunderground v.1.15,2013-11-08 13:30:00,
2013-11-08 05:40:00,42.9,42.9,29.96,NE,47,0.0,7.0,100,0.00,,,0.00,Wunderground v.1.15,2013-11-08 13:40:00,
2013-11-08 05:50:00,42.9,42.9,29.96,NE,46,0.0,7.0,100,0.00,,,0.00,Wunderground v.1.15,2013-11-08 13:50:00,
2013-11-08 06:00:00,42.6,42.6,29.96,NE,47,0.0,7.0,100,0.00,,,0.00,Wunderground v.1.15,2013-11-08 14:00:00,
2013-11-08 06:10:00,42.2,42.2,29.96,NE,47,0.0,7.0,100,0.00,,,0.00,Wunderground v.1.15,2013-11-08 14:10:00,
2013-11-08 06:20:00,42.1,42.1,29.96,NE,47,0.0,7.0,100,0.00,,,0.00,Wunderground v.1.15,2013-11-08 14:20:00,
2013-11-08 06:30:00,41.8,41.8,29.96,NE,47,0.0,7.0,100,0.00,,,0.00,Wunderground v.1.15,2013-11-08 14:30:00,
2013-11-08 06:40:00,41.5,41.5,29.96,NE,47,0.0,7.0,100,0.00,,,0.00,Wunderground v.1.15,2013-11-08 14:40:00,
2013-11-08 06:50:00,41.2,41.2,29.96,NE,47,0.0,7.0,100,0.00,,,0.00,Wunderground v.1.15,2013-11-08 14:50:00,
2013-11-08 07:00:00,41.2,41.2,29.96,NE,46,0.0,7.0,100,0.00,,,0.00,Wunderground v.1.15,2013-11-08 15:00:00,
2013-11-08 07:10:00,41.3,41.3,29.96,NE,46,0.0,7.0,100,0.00,,,0.00,Wunderground v.1.15,2013-11-08 15:10:00,
2013-11-08 07:20:00,41.5,41.5,29.97,NE,46,0.0,7.0,100,0.00,,,0.00,Wunderground v.1.15,2013-11-08 15:20:00,
2013-11-08 07:30:00,41.5,41.5,29.97,NE,46,0.0,7.0,100,0.00,,,0.00,Wunderground v.1.15,2013-11-08 15:30:00,
2013-11-08 07:40:00,41.8,41.8,29.97,NE,47,0.0,7.0,100,0.00,,,0.00,Wunderground v.1.15,2013-11-08 15:40:00,
2013-11-08 07:50:00,42.9,42.9,29.97,NE,47,0.0,7.0,100,0.00,,,0.00,Wunderground v.1.15,2013-11-08 15:50:00,
2013-11-08 08:00:00,45.5,45.5,29.97,NE,46,0.0,7.0,100,0.00,,,0.00,Wunderground v.1.15,2013-11-08 16:00:00,
2013-11-08 08:10:00,47.6,47.6,29.97,NE,47,0.0,7.0,100,0.00,,,0.00,Wunderground v.1.15,2013-11-08 16:10:00,
2013-11-08 08:20:00,48.5,48.5,29.98,NE,47,0.0,7.0,100,0.00,,,0.00,Wunderground v.1.15,2013-11-08 16:20:00,
2013-11-08 08:30:00,49.2,49.2,29.98,NE,47,0.0,7.0,100,0.00,,,0.00,Wunderground v.1.15,2013-11-08 16:30:00,
2013-11-08 08:40:00,50.2,50.2,29.98,NE,46,0.0,7.0,100,0.00,,,0.00,Wunderground v.1.15,2013-11-08 16:40:00,
2013-11-08 08:50:00,51.7,51.7,29.98,NE,46,0.0,7.0,100,0.00,,,0.00,Wunderground v.1.15,2013-11-08 16:50:00,
2013-11-08 09:00:00,52.9,52.9,29.98,NE,46,0.0,7.0,100,0.00,,,0.00,Wunderground v.1.15,2013-11-08 17:00:00,
2013-11-08 09:10:00,53.6,53.6,29.98,NE,46,0.0,7.0,100,0.00,,,0.00,Wunderground v.1.15,2013-11-08 17:10:00,
2013-11-08 09:20:00,55.3,55.3,29.98,NE,46,0.0,7.0,100,0.00,,,0.00,Wunderground v.1.15,2013-11-08 17:20:00,
2013-11-08 09:30:00,57.2,57.2,29.97,NE,46,0.0,7.0,100,0.00,,,0.00,Wunderground v.1.15,2013-11-08 17:30:00,
2013-11-08 09:40:00,58.7,58.7,29.97,NE,46,0.0,7.0,100,0.00,,,0.00,Wunderground v.1.15,2013-11-08 17:40:00,
2013-11-08 09:50:00,58.6,58.6,29.96,NE,46,0.0,7.0,100,0.00,,,0.00,Wunderground v.1.15,2013-11-08 17:50:00,
2013-11-08 10:00:00,59.6,59.6,29.96,NE,46,0.0,7.0,100,0.00,,,0.00,Wunderground v.1.15,2013-11-08 18:00:00,
2013-11-08 10:10:00,62.0,62.0,29.96,NE,46,0.0,7.0,100,0.00,,,0.00,Wunderground v.1.15,2013-11-08 18:10:00,
2013-11-08 10:20:00,63.7,63.7,29.96,SSE,168,0.0,7.0,100,0.00,,,0.00,Wunderground v.1.15,2013-11-08 18:20:00,
2013-11-08 10:30:00,64.3,63.7,29.96,South,182,0.0,7.0,98,0.00,,,0.00,Wunderground v.1.15,2013-11-08 18:30:00,
2013-11-08 10:40:00,66.1,64.9,29.96,SSW,192,0.0,7.0,96,0.00,,,0.00,Wunderground v.1.15,2013-11-08 18:40:00,
2013-11-08 10:50:00,68.1,66.0,29.95,South,182,1.0,1.0,93,0.00,,,0.00,Wunderground v.1.15,2013-11-08 18:50:00,
2013-11-08 11:00:00,69.4,67.0,29.95,South,187,0.0,7.0,92,0.00,,,0.00,Wunderground v.1.15,2013-11-08 19:00:00,
2013-11-08 11:10:00,70.1,67.7,29.94,SW,224,1.0,1.0,92,0.00,,,0.00,Wunderground v.1.15,2013-11-08 19:10:00,
2013-11-08 11:20:00,71.3,68.5,29.94,SSE,160,0.0,7.0,91,0.00,,,0.00,Wunderground v.1.15,2013-11-08 19:20:00,
2013-11-08 11:30:00,72.8,70.0,29.94,SW,221,0.0,7.0,91,0.00,,,0.00,Wunderground v.1.15,2013-11-08 19:30:00,
2013-11-08 11:40:00,73.2,70.1,29.93,WNW,295,1.0,7.0,90,0.00,,,0.00,Wunderground v.1.15,2013-11-08 19:40:00,
2013-11-08 11:50:00,73.5,70.1,29.92,West,281,1.0,1.0,89,0.00,,,0.00,Wunderground v.1.15,2013-11-08 19:50:00,
2013-11-08 12:00:00,73.5,70.4,29.92,WNW,282,1.0,1.0,90,0.00,,,0.00,Wunderground v.1.15,2013-11-08 20:00:00,
2013-11-08 12:10:00,74.2,70.4,29.91,SW,219,2.0,2.0,88,0.00,,,0.00,Wunderground v.1.15,2013-11-08 20:10:00,
2013-11-08 12:20:00,74.0,71.2,29.91,SW,229,3.0,11.0,91,0.00,,,0.00,Wunderground v.1.15,2013-11-08 20:20:00,
2013-11-08 12:30:00,71.3,68.9,29.91,WNW,292,5.0,9.0,92,0.00,,,0.00,Wunderground v.1.15,2013-11-08 20:30:00,
2013-11-08 12:40:00,68.8,66.7,29.91,WNW,300,7.0,7.0,93,0.00,,,0.00,Wunderground v.1.15,2013-11-08 20:40:00,
2013-11-08 12:50:00,67.9,65.5,29.91,WNW,290,7.0,7.0,92,0.00,,,0.00,Wunderground v.1.15,2013-11-08 20:50:00,
2013-11-08 13:00:00,66.1,63.1,29.91,West,279,9.0,10.0,90,0.00,,,0.00,Wunderground v.1.15,2013-11-08 21:00:00,
2013-11-08 13:10:00,66.0,62.7,29.91,WNW,301,8.0,8.0,89,0.00,,,0.00,Wunderground v.1.15,2013-11-08 21:10:00,
2013-11-08 13:20:00,66.8,63.5,29.91,WSW,250,5.0,5.0,89,0.00,,,0.00,Wunderground v.1.15,2013-11-08 21:20:00,
2013-11-08 13:30:00,67.6,63.6,29.90,WNW,300,4.0,7.0,87,0.00,,,0.00,Wunderground v.1.15,2013-11-08 21:30:00,
2013-11-08 13:40:00,67.1,63.7,29.90,WSW,244,3.0,3.0,89,0.00,,,0.00,Wunderground v.1.15,2013-11-08 21:40:00,
2013-11-08 13:50:00,67.4,62.1,29.90,WNW,284,2.0,7.0,83,0.00,,,0.00,Wunderground v.1.15,2013-11-08 21:50:00,
2013-11-08 14:00:00,66.1,60.1,29.90,WNW,286,6.0,7.0,81,0.00,,,0.00,Wunderground v.1.15,2013-11-08 22:00:00,
2013-11-08 14:10:00,66.9,60.5,29.90,NW,314,4.0,4.0,80,0.00,,,0.00,Wunderground v.1.15,2013-11-08 22:10:00,
2013-11-08 14:20:00,66.8,60.1,29.90,NW,306,3.0,7.0,79,0.00,,,0.00,Wunderground v.1.15,2013-11-08 22:20:00,
2013-11-08 14:30:00,66.8,59.0,29.89,South,189,4.0,4.0,76,0.00,,,0.00,Wunderground v.1.15,2013-11-08 22:30:00,
2013-11-08 14:40:00,66.4,59.0,29.89,WNW,292,4.0,7.0,77,0.00,,,0.00,Wunderground v.1.15,2013-11-08 22:40:00,
2013-11-08 14:50:00,66.6,59.2,29.89,WNW,294,4.0,7.0,77,0.00,,,0.00,Wunderground v.1.15,2013-11-08 22:50:00,
2013-11-08 15:00:00,66.0,56.7,29.89,WNW,302,5.0,9.0,72,0.00,,,0.00,Wunderground v.1.15,2013-11-08 23:00:00,
2013-11-08 15:10:00,64.7,54.3,29.89,WNW,296,7.0,7.0,69,0.00,,,0.00,Wunderground v.1.15,2013-11-08 23:10:00,
2013-11-08 15:20:00,64.5,54.1,29.89,WSW,243,5.0,5.0,69,0.00,,,0.00,Wunderground v.1.15,2013-11-08 23:20:00,
2013-11-08 15:30:00,64.2,54.2,29.88,West,259,3.0,3.0,70,0.00,,,0.00,Wunderground v.1.15,2013-11-08 23:30:00,
2013-11-08 15:40:00,63.1,53.5,29.88,WNW,293,5.0,7.0,71,0.00,,,0.00,Wunderground v.1.15,2013-11-08 23:40:00,
2013-11-08 15:50:00,62.3,54.3,29.88,West,275,4.0,4.0,75,0.00,,,0.00,Wunderground v.1.15,2013-11-08 23:50:00,
2013-11-08 16:00:00,62.0,54.7,29.88,West,267,2.0,2.0,77,0.00,,,0.00,Wunderground v.1.15,2013-11-09 00:00:00,
2013-11-08 16:10:00,60.7,54.5,29.88,WNW,298,3.0,3.0,80,0.00,,,0.00,Wunderground v.1.15,2013-11-09 00:10:00,
2013-11-08 16:20:00,59.5,55.0,29.88,WNW,298,3.0,7.0,85,0.00,,,0.00,Wunderground v.1.15,2013-11-09 00:20:00,
2013-11-08 16:30:00,58.6,55.1,29.88,WNW,293,2.0,7.0,88,0.00,,,0.00,Wunderground v.1.15,2013-11-09 00:30:00,
2013-11-08 16:40:00,57.5,54.6,29.88,WNW,289,3.0,7.0,90,0.00,,,0.00,Wunderground v.1.15,2013-11-09 00:40:00,
2013-11-08 16:50:00,56.3,54.6,29.88,West,275,3.0,3.0,94,0.00,,,0.00,Wunderground v.1.15,2013-11-09 00:50:00,
2013-11-08 17:00:00,55.6,54.5,29.88,WNW,284,2.0,2.0,96,0.00,,,0.00,Wunderground v.1.15,2013-11-09 01:00:00,
2013-11-08 17:10:00,55.1,54.3,29.88,West,280,1.0,1.0,97,0.00,,,0.00,Wunderground v.1.15,2013-11-09 01:10:00,
2013-11-08 17:20:00,54.5,53.9,29.88,WSW,253,0.0,7.0,98,0.00,,,0.00,Wunderground v.1.15,2013-11-09 01:20:00,
2013-11-08 17:30:00,53.9,53.3,29.88,WSW,252,0.0,7.0,98,0.00,,,0.00,Wunderground v.1.15,2013-11-09 01:30:00,
2013-11-08 17:40:00,53.9,53.9,29.88,SSW,207,1.0,7.0,100,0.00,,,0.00,Wunderground v.1.15,2013-11-09 01:40:00,
2013-11-08 17:50:00,53.8,53.8,29.88,SW,218,0.0,7.0,100,0.00,,,0.00,Wunderground v.1.15,2013-11-09 01:50:00,
2013-11-08 18:00:00,53.5,53.5,29.88,SSW,212,1.0,7.0,100,0.00,,,0.00,Wunderground v.1.15,2013-11-09 02:00:00,
2013-11-08 18:10:00,53.2,53.2,29.88,SW,227,1.0,1.0,100,0.00,,,0.00,Wunderground v.1.15,2013-11-09 02:10:00,
2013-11-08 18:20:00,52.9,52.9,29.88,SW,227,0.0,7.0,100,0.00,,,0.00,Wunderground v.1.15,2013-11-09 02:20:00,
2013-11-08 18:30:00,52.6,52.6,29.88,SW,227,0.0,7.0,100,0.00,,,0.00,Wunderground v.1.15,2013-11-09 02:30:00,
2013-11-08 18:40:00,52.6,52.6,29.88,SW,227,0.0,7.0,100,0.00,,,0.00,Wunderground v.1.15,2013-11-09 02:40:00,
2013-11-08 18:50:00,52.3,52.3,29.88,SW,227,0.0,7.0,100,0.00,,,0.00,Wunderground v.1.15,2013-11-09 02:50:00,
2013-11-08 19:00:00,51.6,51.6,29.88,SW,227,0.0,7.0,100,0.00,,,0.00,Wunderground v.1.15,2013-11-09 03:00:00,
2013-11-08 19:10:00,51.0,51.0,29.88,SW,227,0.0,7.0,100,0.00,,,0.00,Wunderground v.1.15,2013-11-09 03:10:00,
2013-11-08 19:20:00,50.2,50.2,29.88,SW,227,0.0,7.0,100,0.00,,,0.00,Wunderground v.1.15,2013-11-09 03:20:00,
2013-11-08 19:30:00,49.5,49.5,29.88,SW,227,0.0,7.0,100,0.00,,,0.00,Wunderground v.1.15,2013-11-09 03:30:00,
2013-11-08 19:40:00,48.6,48.6,29.88,SW,228,0.0,7.0,100,0.00,,,0.00,Wunderground v.1.15,2013-11-09 03:40:00,
2013-11-08 19:50:00,48.0,48.0,29.87,SW,228,0.0,7.0,100,0.00,,,0.00,Wunderground v.1.15,2013-11-09 03:50:00,
2013-11-08 20:00:00,47.4,47.4,29.87,SW,228,0.0,7.0,100,0.00,,,0.00,Wunderground v.1.15,2013-11-09 04:00:00,
2013-11-08 20:10:00,47.6,47.6,29.87,SW,228,0.0,7.0,100,0.00,,,0.00,Wunderground v.1.15,2013-11-09 04:10:00,
2013-11-08 20:20:00,47.4,47.4,29.87,SW,228,0.0,7.0,100,0.00,,,0.00,Wunderground v.1.15,2013-11-09 04:20:00,
2013-11-08 20:30:00,47.9,47.9,29.87,SW,228,0.0,7.0,100,0.00,,,0.00,Wunderground v.1.15,2013-11-09 04:30:00,
2013-11-08 20:40:00,48.6,48.6,29.88,SW,227,0.0,7.0,100,0.00,,,0.00,Wunderground v.1.15,2013-11-09 04:40:00,
2013-11-08 20:50:00,48.9,48.9,29.88,SW,224,0.0,7.0,100,0.00,,,0.00,Wunderground v.1.15,2013-11-09 04:50:00,
2013-11-08 21:00:00,49.1,49.1,29.88,SSW,210,0.0,7.0,100,0.00,,,0.00,Wunderground v.1.15,2013-11-09 05:00:00,
2013-11-08 21:10:00,49.4,49.4,29.88,South,183,1.0,1.0,100,0.00,,,0.00,Wunderground v.1.15,2013-11-09 05:10:00,
2013-11-08 21:20:00,49.6,49.6,29.88,South,184,0.0,7.0,100,0.00,,,0.00,Wunderground v.1.15,2013-11-09 05:20:00,
2013-11-08 21:30:00,49.8,49.8,29.88,South,183,0.0,7.0,100,0.00,,,0.00,Wunderground v.1.15,2013-11-09 05:30:00,
2013-11-08 21:40:00,49.6,49.6,29.88,South,183,0.0,7.0,100,0.00,,,0.00,Wunderground v.1.15,2013-11-09 05:40:00,
2013-11-08 21:50:00,49.5,49.5,29.88,South,183,0.0,7.0,100,0.00,,,0.00,Wunderground v.1.15,2013-11-09 05:50:00,
2013-11-08 22:00:00,49.8,49.8,29.88,South,184,0.0,7.0,100,0.00,,,0.00,Wunderground v.1.15,2013-11-09 06:00:00,
2013-11-08 22:10:00,49.5,49.5,29.88,South,184,0.0,7.0,100,0.00,,,0.00,Wunderground v.1.15,2013-11-09 06:10:00,
2013-11-08 22:20:00,49.1,49.1,29.88,South,183,0.0,7.0,100,0.00,,,0.00,Wunderground v.1.15,2013-11-09 06:20:00,
2013-11-08 22:30:00,48.9,48.9,29.88,South,183,0.0,7.0,100,0.00,,,0.00,Wunderground v.1.15,2013-11-09 06:30:00,
2013-11-08 22:40:00,48.3,48.3,29.88,South,183,0.0,7.0,100,0.00,,,0.00,Wunderground v.1.15,2013-11-09 06:40:00,
2013-11-08 22:50:00,48.0,48.0,29.88,South,183,0.0,7.0,100,0.00,,,0.00,Wunderground v.1.15,2013-11-09 06:50:00,
2013-11-08 23:00:00,48.2,48.2,29.88,South,183,0.0,7.0,100,0.00,,,0.00,Wunderground v.1.15,2013-11-09 07:00:00,
2013-11-08 23:10:00,48.5,48.5,29.88,SE,125,0.0,7.0,100,0.00,,,0.00,Wunderground v.1.15,2013-11-09 07:10:00,
2013-11-08 23:20:00,48.5,48.5,29.88,SE,125,0.0,7.0,100,0.00,,,0.00,Wunderground v.1.15,2013-11-09 07:20:00,
2013-11-08 23:30:00,48.2,48.2,29.88,SE,126,0.0,7.0,100,0.00,,,0.00,Wunderground v.1.15,2013-11-09 07:30:00,
2013-11-08 23:40:00,47.9,47.9,29.88,SE,126,0.0,7.0,100,0.00,,,0.00,Wunderground v.1.15,2013-11-09 07:40:00,
2013-11-08 23:50:00,47.6,47.6,29.88,SE,125,0.0,7.0,100,0.00,,,0.00,Wunderground v.1.15,2013-11-09 07:50:00,